Time,TemperatureF,DewpointF,PressureIn,WindDirection,WindDirectionDegrees,WindSpeedMPH,WindSpeedGustMPH,Humidity,HourlyPrecipIn,Conditions,Clouds,dailyrainin,SoftwareType,DateUTC
2013-09-07 00:00:00,58.6,56.0,30.14,SW,223,0.0,0.0,91,0.00,,,0.00,Wunderground v.1.15,2013-09-07 04:00:00,
2013-09-07 00:05:00,58.5,55.9,30.14,SW,223,0.0,0.0,91,0.00,,,0.00,Wunderground v.1.15,2013-09-07 04:05:00,
2013-09-07 00:10:00,58.4,55.8,30.14,SW,223,0.0,0.0,91,0.00,,,0.00,Wunderground v.1.15,2013-09-07 04:10:00,
2013-09-07 00:15:00,58.3,55.7,30.14,SW,223,0.0,0.0,91,0.00,,,0.00,Wunderground v.1.15,2013-09-07 04:15:00,
2013-09-07 00:20:00,58.2,55.6,30.14,SW,223,0.0,0.0,91,0.00,,,0.00,Wunderground v.1.15,2013-09-07 04:20:00,
2013-09-07 00:25:00,58.1,55.5,30.14,SW,223,0.0,0.0,91,0.00,,,0.00,Wunderground v.1.15,2013-09-07 04:25:00,
2013-09-07 00:30:00,58.0,55.4,30.14,SW,223,0.0,0.0,91,0.00,,,0.00,Wunderground v.1.15,2013-09-07 04:30:00,
2013-09-07 00:40:00,57.8,55.2,30.14,SW,223,0.0,0.0,91,0.00,,,0.00,Wunderground v.1.15,2013-09-07 04:40:00,
2013-09-07 00:45:00,57.7,55.1,30.14,SW,223,0.0,0.0,91,0.00,,,0.00,Wunderground v.1.15,2013-09-07 04:45:00,
2013-09-07 00:55:00,57.5,54.9,30.14,SW,223,0.0,0.0,91,0.00,,,0.00,Wunderground v.1.15,2013-09-07 04:55:00,
2013-09-07 01:00:00,57.4,54.8,30.14,SW,223,0.0,0.0,91,0.00,,,0.00,Wunderground v.1.15,2013-09-07 05:00:00,
2013-09-07 01:05:00,57.3,54.7,30.13,SW,223,0.0,0.0,91,0.00,,,0.00,Wunderground v.1.15,2013-09-07 05:05:00,
2013-09-07 01:10:00,57.2,54.6,30.14,SW,223,0.0,0.0,91,0.00,,,0.00,Wunderground v.1.15,2013-09-07 05:10:00,
2013-09-07 01:15:00,57.2,54.6,30.14,SW,223,0.0,0.0,91,0.00,,,0.00,Wunderground v.1.15,2013-09-07 05:15:00,
2013-09-07 01:25:00,57.3,54.7,30.14,SW,223,0.0,0.0,91,0.00,,,0.00,Wunderground v.1.15,2013-09-07 05:25:00,
2013-09-07 01:30:00,57.3,54.7,30.14,SW,223,0.0,0.0,91,0.00,,,0.00,Wunderground v.1.15,2013-09-07 05:30:00,
2013-09-07 01:40:00,57.5,55.2,30.13,SW,223,0.0,0.0,92,0.00,,,0.00,Wunderground v.1.15,2013-09-07 05:40:00,
2013-09-07 01:50:00,57.5,55.2,30.13,SW,223,0.0,0.0,92,0.00,,,0.00,Wunderground v.1.15,2013-09-07 05:50:00,
2013-09-07 01:55:00,57.5,55.2,30.13,SW,223,0.0,0.0,92,0.00,,,0.00,Wunderground v.1.15,2013-09-07 05:55:00,
2013-09-07 02:00:00,57.5,55.2,30.13,SW,223,0.0,0.0,92,0.00,,,0.00,Wunderground v.1.15,2013-09-07 06:00:00,
2013-09-07 02:10:00,57.4,55.1,30.13,SW,223,0.0,0.0,92,0.00,,,0.00,Wunderground v.1.15,2013-09-07 06:10:00,
2013-09-07 02:20:00,57.5,55.2,30.13,SW,223,0.0,0.0,92,0.00,,,0.00,Wunderground v.1.15,2013-09-07 06:20:00,
2013-09-07 02:25:00,57.6,55.3,30.13,SW,223,0.0,0.0,92,0.00,,,0.00,Wunderground v.1.15,2013-09-07 06:25:00,
2013-09-07 02:30:00,57.8,55.5,30.13,SW,223,0.0,0.0,92,0.00,,,0.00,Wunderground v.1.15,2013-09-07 06:30:00,
2013-09-07 02:35:00,58.0,55.7,30.13,SW,223,0.0,0.0,92,0.00,,,0.00,Wunderground v.1.15,2013-09-07 06:35:00,
2013-09-07 02:40:00,58.0,55.7,30.13,SW,223,0.0,0.0,92,0.00,,,0.00,Wunderground v.1.15,2013-09-07 06:40:00,
2013-09-07 02:45:00,57.8,55.5,30.13,SW,223,0.0,0.0,92,0.00,,,0.00,Wunderground v.1.15,2013-09-07 06:45:00,
2013-09-07 02:55:00,57.6,55.3,30.13,SW,223,0.0,0.0,92,0.00,,,0.00,Wunderground v.1.15,2013-09-07 06:55:00,
2013-09-07 03:00:00,57.5,55.2,30.13,SW,223,0.0,0.0,92,0.00,,,0.00,Wunderground v.1.15,2013-09-07 07:00:00,
2013-09-07 03:10:00,57.1,54.8,30.13,SW,223,0.0,0.0,92,0.00,,,0.00,Wunderground v.1.15,2013-09-07 07:10:00,
2013-09-07 03:15:00,57.1,54.8,30.13,SW,223,0.0,0.0,92,0.00,,,0.00,Wunderground v.1.15,2013-09-07 07:15:00,
2013-09-07 03:20:00,57.0,54.7,30.13,SW,223,0.0,0.0,92,0.00,,,0.00,Wunderground v.1.15,2013-09-07 07:20:00,
2013-09-07 03:25:00,56.9,54.6,30.13,SW,223,0.0,0.0,92,0.00,,,0.00,Wunderground v.1.15,2013-09-07 07:25:00,
2013-09-07 03:30:00,56.8,54.5,30.13,SW,223,0.0,0.0,92,0.00,,,0.00,Wunderground v.1.15,2013-09-07 07:30:00,
2013-09-07 03:40:00,56.6,54.3,30.13,SW,223,0.0,0.0,92,0.00,,,0.00,Wunderground v.1.15,2013-09-07 07:40:00,
2013-09-07 03:45:00,56.6,54.3,30.13,SW,223,0.0,0.0,92,0.00,,,0.00,Wunderground v.1.15,2013-09-07 07:45:00,
2013-09-07 03:55:00,56.5,54.2,30.13,SW,223,0.0,0.0,92,0.00,,,0.00,Wunderground v.1.15,2013-09-07 07:55:00,
2013-09-07 04:00:00,56.5,54.2,30.13,SW,223,0.0,0.0,92,0.00,,,0.00,Wunderground v.1.15,2013-09-07 08:00:00,
2013-09-07 04:10:00,56.4,54.1,30.13,SW,223,0.0,0.0,92,0.00,,,0.00,Wunderground v.1.15,2013-09-07 08:10:00,
2013-09-07 04:20:00,56.5,54.2,30.12,SW,223,0.0,0.0,92,0.00,,,0.00,Wunderground v.1.15,2013-09-07 08:20:00,
2013-09-07 04:25:00,56.5,54.2,30.12,SW,223,0.0,0.0,92,0.00,,,0.00,Wunderground v.1.15,2013-09-07 08:25:00,
2013-09-07 04:30:00,56.4,54.1,30.12,SW,223,0.0,0.0,92,0.00,,,0.00,Wunderground v.1.15,2013-09-07 08:30:00,
2013-09-07 04:40:00,56.4,54.1,30.12,SW,223,0.0,0.0,92,0.00,,,0.00,Wunderground v.1.15,2013-09-07 08:40:00,
2013-09-07 04:50:00,56.4,54.1,30.12,SW,223,0.0,0.0,92,0.00,,,0.00,Wunderground v.1.15,2013-09-07 08:50:00,
2013-09-07 04:55:00,56.4,54.1,30.12,SW,223,0.0,0.0,92,0.00,,,0.00,Wunderground v.1.15,2013-09-07 08:55:00,
2013-09-07 05:00:00,56.4,54.1,30.12,SW,223,0.0,0.0,92,0.00,,,0.00,Wunderground v.1.15,2013-09-07 09:00:00,
2013-09-07 05:05:00,56.4,54.1,30.12,SW,223,0.0,0.0,92,0.00,,,0.00,Wunderground v.1.15,2013-09-07 09:05:00,
2013-09-07 05:10:00,56.4,54.1,30.12,SW,223,0.0,0.0,92,0.00,,,0.00,Wunderground v.1.15,2013-09-07 09:10:00,
2013-09-07 05:15:00,56.2,53.9,30.12,SW,223,0.0,0.0,92,0.00,,,0.00,Wunderground v.1.15,2013-09-07 09:15:00,
2013-09-07 05:25:00,56.0,53.7,30.12,SW,223,0.0,0.0,92,0.00,,,0.00,Wunderground v.1.15,2013-09-07 09:25:00,
2013-09-07 05:30:00,56.0,53.7,30.12,SW,223,0.0,0.0,92,0.00,,,0.00,Wunderground v.1.15,2013-09-07 09:30:00,
2013-09-07 05:35:00,55.9,53.6,30.12,SW,223,0.0,0.0,92,0.00,,,0.00,Wunderground v.1.15,2013-09-07 09:35:00,
2013-09-07 05:40:00,55.9,53.6,30.12,SW,223,0.0,0.0,92,0.00,,,0.00,Wunderground v.1.15,2013-09-07 09:40:00,
2013-09-07 05:45:00,55.8,53.5,30.12,SW,223,0.0,0.0,92,0.00,,,0.00,Wunderground v.1.15,2013-09-07 09:45:00,
2013-09-07 05:55:00,55.6,53.3,30.12,SW,223,0.0,0.0,92,0.00,,,0.00,Wunderground v.1.15,2013-09-07 09:55:00,
2013-09-07 06:00:00,55.5,53.2,30.12,SW,223,0.0,0.0,92,0.00,,,0.00,Wunderground v.1.15,2013-09-07 10:00:00,
2013-09-07 06:10:00,55.4,53.1,30.12,SW,223,0.0,0.0,92,0.00,,,0.00,Wunderground v.1.15,2013-09-07 10:10:00,
2013-09-07 06:15:00,55.4,53.1,30.12,SW,223,0.0,0.0,92,0.00,,,0.00,Wunderground v.1.15,2013-09-07 10:15:00,
2013-09-07 06:25:00,55.2,52.9,30.12,SW,223,0.0,0.0,92,0.00,,,0.00,Wunderground v.1.15,2013-09-07 10:25:00,
2013-09-07 06:30:00,55.2,52.9,30.13,SW,223,0.0,0.0,92,0.00,,,0.00,Wunderground v.1.15,2013-09-07 10:30:00,
2013-09-07 06:35:00,55.1,53.1,30.13,SW,223,0.0,0.0,93,0.00,,,0.00,Wunderground v.1.15,2013-09-07 10:35:00,
2013-09-07 06:40:00,55.1,53.1,30.13,SW,223,0.0,0.0,93,0.00,,,0.00,Wunderground v.1.15,2013-09-07 10:40:00,
2013-09-07 06:45:00,55.3,53.3,30.13,SW,223,0.0,0.0,93,0.00,,,0.00,Wunderground v.1.15,2013-09-07 10:45:00,
2013-09-07 06:55:00,55.5,53.5,30.13,SW,223,0.0,0.0,93,0.00,,,0.00,Wunderground v.1.15,2013-09-07 10:55:00,
2013-09-07 07:00:00,55.5,53.5,30.13,SW,223,0.0,0.0,93,0.00,,,0.00,Wunderground v.1.15,2013-09-07 11:00:00,
2013-09-07 07:10:00,55.3,53.3,30.13,SW,223,0.0,0.0,93,0.00,,,0.00,Wunderground v.1.15,2013-09-07 11:10:00,
2013-09-07 07:20:00,55.1,53.1,30.14,SW,223,0.0,0.0,93,0.00,,,0.00,Wunderground v.1.15,2013-09-07 11:20:00,
2013-09-07 07:25:00,55.1,53.1,30.14,SW,223,0.0,0.0,93,0.00,,,0.00,Wunderground v.1.15,2013-09-07 11:25:00,
2013-09-07 07:30:00,55.1,53.1,30.14,SW,223,0.0,0.0,93,0.00,,,0.00,Wunderground v.1.15,2013-09-07 11:30:00,
2013-09-07 07:40:00,55.4,53.4,30.14,SW,223,0.0,0.0,93,0.00,,,0.00,Wunderground v.1.15,2013-09-07 11:40:00,
2013-09-07 07:45:00,55.7,53.7,30.14,SW,223,0.0,0.0,93,0.00,,,0.00,Wunderground v.1.15,2013-09-07 11:45:00,
2013-09-07 07:50:00,55.7,53.7,30.14,SW,223,0.0,0.0,93,0.00,,,0.00,Wunderground v.1.15,2013-09-07 11:50:00,
2013-09-07 07:55:00,55.7,53.7,30.14,SW,223,0.0,0.0,93,0.00,,,0.00,Wunderground v.1.15,2013-09-07 11:55:00,
2013-09-07 08:05:00,55.8,53.8,30.14,SW,223,0.0,0.0,93,0.00,,,0.00,Wunderground v.1.15,2013-09-07 12:05:00,
2013-09-07 08:10:00,55.9,53.9,30.14,SW,223,0.0,0.0,93,0.00,,,0.00,Wunderground v.1.15,2013-09-07 12:10:00,
2013-09-07 08:20:00,56.1,54.1,30.14,SW,223,0.0,0.0,93,0.00,,,0.00,Wunderground v.1.15,2013-09-07 12:20:00,
2013-09-07 08:30:00,56.1,54.1,30.14,SW,223,0.0,0.0,93,0.00,,,0.00,Wunderground v.1.15,2013-09-07 12:30:00,
2013-09-07 08:40:00,56.3,54.3,30.14,SW,223,0.0,0.0,93,0.00,,,0.00,Wunderground v.1.15,2013-09-07 12:40:00,
2013-09-07 08:45:00,56.7,54.7,30.14,SW,223,0.0,0.0,93,0.00,,,0.00,Wunderground v.1.15,2013-09-07 12:45:00,
2013-09-07 08:55:00,57.6,55.6,30.14,SW,223,0.0,0.0,93,0.00,,,0.00,Wunderground v.1.15,2013-09-07 12:55:00,
2013-09-07 09:00:00,58.2,56.2,30.14,SW,223,0.0,0.0,93,0.00,,,0.00,Wunderground v.1.15,2013-09-07 13:00:00,
2013-09-07 09:10:00,58.9,56.9,30.14,SW,223,0.0,0.0,93,0.00,,,0.00,Wunderground v.1.15,2013-09-07 13:10:00,
2013-09-07 09:15:00,59.5,57.5,30.14,SW,223,0.0,0.0,93,0.00,,,0.00,Wunderground v.1.15,2013-09-07 13:15:00,
2013-09-07 09:25:00,60.4,58.4,30.13,SW,223,0.0,0.0,93,0.00,,,0.00,Wunderground v.1.15,2013-09-07 13:25:00,
2013-09-07 09:30:00,60.6,58.6,30.13,SSE,161,0.0,1.0,93,0.00,,,0.00,Wunderground v.1.15,2013-09-07 13:30:00,
2013-09-07 09:35:00,60.9,58.9,30.13,ESE,106,0.0,1.0,93,0.00,,,0.00,Wunderground v.1.15,2013-09-07 13:35:00,
2013-09-07 09:40:00,61.2,58.9,30.13,ESE,106,0.0,0.0,92,0.00,,,0.00,Wunderground v.1.15,2013-09-07 13:40:00,
2013-09-07 09:45:00,61.7,59.4,30.13,ESE,106,0.0,0.0,92,0.00,,,0.00,Wunderground v.1.15,2013-09-07 13:45:00,
2013-09-07 09:55:00,62.5,59.8,30.13,East,98,0.0,0.0,91,0.00,,,0.00,Wunderground v.1.15,2013-09-07 13:55:00,
2013-09-07 10:00:00,62.9,59.9,30.13,East,98,0.0,0.0,90,0.00,,,0.00,Wunderground v.1.15,2013-09-07 14:00:00,
2013-09-07 10:25:00,66.0,62.3,30.13,ESE,113,0.0,0.0,88,0.00,,,0.00,Wunderground v.1.15,2013-09-07 14:25:00,
2013-09-07 10:30:00,66.3,62.3,30.13,ESE,121,0.0,0.0,87,0.00,,,0.00,Wunderground v.1.15,2013-09-07 14:30:00,
2013-09-07 10:40:00,67.2,63.2,30.13,ESE,111,0.0,1.0,87,0.00,,,0.00,Wunderground v.1.15,2013-09-07 14:40:00,
2013-09-07 10:45:00,67.6,63.6,30.13,ESE,111,0.0,0.0,87,0.00,,,0.00,Wunderground v.1.15,2013-09-07 14:45:00,
2013-09-07 10:50:00,67.8,63.5,30.12,SE,128,1.0,1.0,86,0.00,,,0.00,Wunderground v.1.15,2013-09-07 14:50:00,
2013-09-07 10:55:00,68.5,63.8,30.13,SE,126,1.0,1.0,85,0.00,,,0.00,Wunderground v.1.15,2013-09-07 14:55:00,
2013-09-07 11:00:00,69.2,64.5,30.12,ESE,107,1.0,1.0,85,0.00,,,0.00,Wunderground v.1.15,2013-09-07 15:00:00,
2013-09-07 11:10:00,69.9,65.2,30.12,SSE,150,1.0,1.0,85,0.00,,,0.00,Wunderground v.1.15,2013-09-07 15:10:00,
2013-09-07 11:15:00,70.1,65.0,30.12,SSE,156,0.0,1.0,84,0.00,,,0.00,Wunderground v.1.15,2013-09-07 15:15:00,
2013-09-07 11:25:00,71.4,66.0,30.12,South,182,0.0,0.0,83,0.00,,,0.00,Wunderground v.1.15,2013-09-07 15:25:00,
2013-09-07 11:35:00,72.3,66.1,30.12,WNW,300,1.0,1.0,81,0.00,,,0.00,Wunderground v.1.15,2013-09-07 15:35:00,
2013-09-07 11:40:00,72.8,66.3,30.11,NW,325,2.0,3.0,80,0.00,,,0.00,Wunderground v.1.15,2013-09-07 15:40:00,
2013-09-07 11:45:00,73.2,65.9,30.11,West,275,2.0,5.0,78,0.00,,,0.00,Wunderground v.1.15,2013-09-07 15:45:00,
2013-09-07 11:55:00,73.9,65.9,30.11,North,5,3.0,3.0,76,0.00,,,0.00,Wunderground v.1.15,2013-09-07 15:55:00,
2013-09-07 12:00:00,74.7,67.4,30.10,NW,320,1.0,1.0,78,0.00,,,0.00,Wunderground v.1.15,2013-09-07 16:00:00,
2013-09-07 12:05:00,75.3,66.4,30.10,NNW,338,1.0,2.0,74,0.00,,,0.00,Wunderground v.1.15,2013-09-07 16:05:00,
2013-09-07 12:10:00,75.5,67.8,30.10,WNW,293,1.0,1.0,77,0.00,,,0.00,Wunderground v.1.15,2013-09-07 16:10:00,
2013-09-07 12:15:00,75.5,67.4,30.10,ENE,63,0.0,1.0,76,0.00,,,0.00,Wunderground v.1.15,2013-09-07 16:15:00,
2013-09-07 12:25:00,75.7,66.8,30.10,West,269,0.0,1.0,74,0.00,,,0.00,Wunderground v.1.15,2013-09-07 16:25:00,
2013-09-07 12:30:00,75.7,66.0,30.09,SSW,200,1.0,1.0,72,0.00,,,0.00,Wunderground v.1.15,2013-09-07 16:30:00,
2013-09-07 12:40:00,76.4,68.3,30.09,SSE,153,1.0,1.0,76,0.00,,,0.00,Wunderground v.1.15,2013-09-07 16:40:00,
2013-09-07 12:45:00,76.6,67.3,30.09,SW,221,1.0,1.0,73,0.00,,,0.00,Wunderground v.1.15,2013-09-07 16:45:00,
2013-09-07 12:55:00,77.5,66.5,30.08,North,5,1.0,2.0,69,0.00,,,0.00,Wunderground v.1.15,2013-09-07 16:55:00,
2013-09-07 13:00:00,78.1,66.7,30.08,North,360,1.0,1.0,68,0.00,,,0.00,Wunderground v.1.15,2013-09-07 17:00:00,
2013-09-07 13:05:00,78.0,65.3,30.08,WSW,254,1.0,1.0,65,0.00,,,0.00,Wunderground v.1.15,2013-09-07 17:05:00,
2013-09-07 13:10:00,78.3,66.9,30.07,WNW,286,1.0,2.0,68,0.00,,,0.00,Wunderground v.1.15,2013-09-07 17:10:00,
2013-09-07 13:15:00,78.3,66.0,30.08,NNW,336,1.0,5.0,66,0.00,,,0.00,Wunderground v.1.15,2013-09-07 17:15:00,
2013-09-07 13:25:00,78.1,66.7,30.07,ENE,76,1.0,2.0,68,0.00,,,0.00,Wunderground v.1.15,2013-09-07 17:25:00,
2013-09-07 13:30:00,78.5,66.2,30.07,NNW,336,1.0,2.0,66,0.00,,,0.00,Wunderground v.1.15,2013-09-07 17:30:00,
2013-09-07 13:40:00,79.0,68.4,30.07,SW,215,1.0,1.0,70,0.00,,,0.00,Wunderground v.1.15,2013-09-07 17:40:00,
2013-09-07 13:45:00,78.6,66.3,30.07,NNE,16,1.0,2.0,66,0.00,,,0.00,Wunderground v.1.15,2013-09-07 17:45:00,
2013-09-07 13:55:00,79.3,67.0,30.06,ESE,117,1.0,4.0,66,0.00,,,0.00,Wunderground v.1.15,2013-09-07 17:55:00,
2013-09-07 14:00:00,79.3,66.5,30.06,NW,315,1.0,4.0,65,0.00,,,0.00,Wunderground v.1.15,2013-09-07 18:00:00,
2013-09-07 14:05:00,79.4,67.0,30.06,North,355,2.0,4.0,66,0.00,,,0.00,Wunderground v.1.15,2013-09-07 18:05:00,
2013-09-07 14:10:00,79.3,67.0,30.05,North,349,1.0,1.0,66,0.00,,,0.00,Wunderground v.1.15,2013-09-07 18:10:00,
2013-09-07 14:15:00,79.6,68.5,30.05,SW,219,1.0,1.0,69,0.00,,,0.00,Wunderground v.1.15,2013-09-07 18:15:00,
2013-09-07 14:25:00,79.5,66.7,30.05,NNW,334,1.0,1.0,65,0.00,,,0.00,Wunderground v.1.15,2013-09-07 18:25:00,
2013-09-07 14:30:00,79.5,66.7,30.05,West,277,1.0,1.0,65,0.00,,,0.00,Wunderground v.1.15,2013-09-07 18:30:00,
2013-09-07 14:40:00,78.9,66.6,30.05,SSW,205,2.0,2.0,66,0.00,,,0.00,Wunderground v.1.15,2013-09-07 18:40:00,
2013-09-07 14:45:00,78.8,67.8,30.05,West,261,2.0,2.0,69,0.00,,,0.00,Wunderground v.1.15,2013-09-07 18:45:00,
2013-09-07 14:55:00,78.7,63.6,30.05,West,266,2.0,3.0,60,0.00,,,0.00,Wunderground v.1.15,2013-09-07 18:55:00,
2013-09-07 15:00:00,79.0,65.3,30.05,West,264,3.0,3.0,63,0.00,,,0.00,Wunderground v.1.15,2013-09-07 19:00:00,
2013-09-07 15:10:00,77.0,65.6,30.04,SW,221,1.0,2.0,68,0.00,,,0.00,Wunderground v.1.15,2013-09-07 19:10:00,
2013-09-07 15:15:00,76.9,65.1,30.04,SW,234,1.0,2.0,67,0.00,,,0.00,Wunderground v.1.15,2013-09-07 19:15:00,
2013-09-07 15:25:00,77.1,66.6,30.04,West,260,1.0,2.0,70,0.00,,,0.00,Wunderground v.1.15,2013-09-07 19:25:00,
2013-09-07 15:30:00,77.3,65.5,30.04,WSW,242,1.0,3.0,67,0.00,,,0.00,Wunderground v.1.15,2013-09-07 19:30:00,
2013-09-07 15:40:00,77.2,66.7,30.03,WSW,243,0.0,0.0,70,0.00,,,0.00,Wunderground v.1.15,2013-09-07 19:40:00,
2013-09-07 15:50:00,77.8,66.4,30.03,WSW,240,1.0,1.0,68,0.00,,,0.00,Wunderground v.1.15,2013-09-07 19:50:00,
2013-09-07 15:55:00,77.5,66.5,30.03,NW,315,1.0,1.0,69,0.00,,,0.00,Wunderground v.1.15,2013-09-07 19:55:00,
2013-09-07 16:00:00,77.7,66.7,30.03,WSW,250,1.0,1.0,69,0.00,,,0.00,Wunderground v.1.15,2013-09-07 20:00:00,
2013-09-07 16:10:00,78.5,65.8,30.03,SSW,211,1.0,2.0,65,0.00,,,0.00,Wunderground v.1.15,2013-09-07 20:10:00,
2013-09-07 16:15:00,78.6,67.6,30.02,SW,236,1.0,2.0,69,0.00,,,0.00,Wunderground v.1.15,2013-09-07 20:15:00,
2013-09-07 16:25:00,77.9,68.1,30.02,West,266,1.0,1.0,72,0.00,,,0.00,Wunderground v.1.15,2013-09-07 20:25:00,
2013-09-07 16:30:00,77.9,66.1,30.02,South,173,1.0,1.0,67,0.00,,,0.00,Wunderground v.1.15,2013-09-07 20:30:00,
2013-09-07 16:40:00,77.8,67.2,30.02,WSW,252,1.0,1.0,70,0.00,,,0.00,Wunderground v.1.15,2013-09-07 20:40:00,
2013-09-07 16:45:00,77.3,67.6,30.02,WSW,246,1.0,1.0,72,0.00,,,0.00,Wunderground v.1.15,2013-09-07 20:45:00,
2013-09-07 16:55:00,76.3,67.8,30.02,WSW,246,0.0,0.0,75,0.00,,,0.00,Wunderground v.1.15,2013-09-07 20:55:00,
2013-09-07 17:00:00,76.2,68.1,30.01,WSW,238,0.0,0.0,76,0.00,,,0.00,Wunderground v.1.15,2013-09-07 21:00:00,
2013-09-07 17:05:00,76.7,68.6,30.02,SW,236,0.0,0.0,76,0.00,,,0.00,Wunderground v.1.15,2013-09-07 21:05:00,
2013-09-07 17:10:00,77.1,68.2,30.02,SW,232,0.0,3.0,74,0.00,,,0.00,Wunderground v.1.15,2013-09-07 21:10:00,
2013-09-07 17:20:00,76.4,68.7,30.01,SW,232,0.0,0.0,77,0.00,,,0.00,Wunderground v.1.15,2013-09-07 21:20:00,
2013-09-07 17:25:00,76.4,68.7,30.01,SW,225,0.0,0.0,77,0.00,,,0.00,Wunderground v.1.15,2013-09-07 21:25:00,
2013-09-07 17:30:00,76.8,69.0,30.01,SW,223,1.0,1.0,77,0.00,,,0.00,Wunderground v.1.15,2013-09-07 21:30:00,
2013-09-07 17:40:00,77.3,68.8,30.01,WSW,242,1.0,2.0,75,0.00,,,0.00,Wunderground v.1.15,2013-09-07 21:40:00,
2013-09-07 17:45:00,76.9,68.8,30.01,West,273,1.0,4.0,76,0.00,,,0.00,Wunderground v.1.15,2013-09-07 21:45:00,
2013-09-07 17:50:00,76.7,68.6,30.01,WSW,249,1.0,1.0,76,0.00,,,0.00,Wunderground v.1.15,2013-09-07 21:50:00,
2013-09-07 17:55:00,76.1,68.4,30.01,WSW,249,1.0,1.0,77,0.00,,,0.00,Wunderground v.1.15,2013-09-07 21:55:00,
2013-09-07 18:05:00,75.2,68.2,30.01,WSW,245,1.0,2.0,79,0.00,,,0.00,Wunderground v.1.15,2013-09-07 22:05:00,
2013-09-07 18:10:00,74.8,68.2,30.00,WSW,245,1.0,1.0,80,0.00,,,0.00,Wunderground v.1.15,2013-09-07 22:10:00,
2013-09-07 18:20:00,74.0,68.2,30.01,WSW,245,0.0,0.0,82,0.00,,,0.00,Wunderground v.1.15,2013-09-07 22:20:00,
2013-09-07 18:25:00,73.9,68.4,30.01,WSW,245,0.0,0.0,83,0.00,,,0.00,Wunderground v.1.15,2013-09-07 22:25:00,
2013-09-07 18:30:00,73.9,68.1,30.01,WSW,245,0.0,0.0,82,0.00,,,0.00,Wunderground v.1.15,2013-09-07 22:30:00,
2013-09-07 18:35:00,74.0,68.2,30.01,WSW,245,0.0,0.0,82,0.00,,,0.00,Wunderground v.1.15,2013-09-07 22:35:00,
2013-09-07 18:40:00,73.7,67.9,30.01,WSW,245,0.0,0.0,82,0.00,,,0.00,Wunderground v.1.15,2013-09-07 22:40:00,
2013-09-07 18:45:00,73.5,67.7,30.01,WSW,245,0.0,0.0,82,0.00,,,0.00,Wunderground v.1.15,2013-09-07 22:45:00,
2013-09-07 18:55:00,73.4,67.9,30.00,WSW,245,0.0,0.0,83,0.00,,,0.00,Wunderground v.1.15,2013-09-07 22:55:00,
2013-09-07 19:00:00,73.3,67.8,30.01,WSW,245,0.0,0.0,83,0.00,,,0.00,Wunderground v.1.15,2013-09-07 23:00:00,
2013-09-07 19:10:00,72.8,67.3,30.01,WSW,245,0.0,0.0,83,0.00,,,0.00,Wunderground v.1.15,2013-09-07 23:10:00,
2013-09-07 19:15:00,72.6,67.5,30.01,WSW,245,0.0,0.0,84,0.00,,,0.00,Wunderground v.1.15,2013-09-07 23:15:00,
2013-09-07 19:20:00,72.3,67.2,30.01,WSW,245,0.0,0.0,84,0.00,,,0.00,Wunderground v.1.15,2013-09-07 23:20:00,
2013-09-07 19:25:00,72.1,67.3,30.01,WSW,245,0.0,0.0,85,0.00,,,0.00,Wunderground v.1.15,2013-09-07 23:25:00,
2013-09-07 19:35:00,71.6,67.2,30.01,WSW,245,0.0,0.0,86,0.00,,,0.00,Wunderground v.1.15,2013-09-07 23:35:00,
2013-09-07 19:40:00,71.4,67.0,30.01,WSW,245,0.0,0.0,86,0.00,,,0.00,Wunderground v.1.15,2013-09-07 23:40:00,
2013-09-07 19:45:00,71.1,66.7,30.02,WSW,245,0.0,0.0,86,0.00,,,0.00,Wunderground v.1.15,2013-09-07 23:45:00,
2013-09-07 19:55:00,70.5,66.4,30.02,WSW,245,0.0,0.0,87,0.00,,,0.00,Wunderground v.1.15,2013-09-07 23:55:00,
2013-09-07 20:00:00,70.2,66.1,30.02,WSW,245,0.0,0.0,87,0.00,,,0.00,Wunderground v.1.15,2013-09-08 00:00:00,
2013-09-07 20:10:00,69.6,65.6,30.02,WSW,245,0.0,0.0,87,0.00,,,0.00,Wunderground v.1.15,2013-09-08 00:10:00,
2013-09-07 20:20:00,69.0,65.3,30.02,WSW,245,0.0,0.0,88,0.00,,,0.00,Wunderground v.1.15,2013-09-08 00:20:00,
2013-09-07 20:25:00,68.6,64.9,30.02,WSW,245,0.0,0.0,88,0.00,,,0.00,Wunderground v.1.15,2013-09-08 00:25:00,
2013-09-07 20:30:00,68.3,64.6,30.02,WSW,245,0.0,0.0,88,0.00,,,0.00,Wunderground v.1.15,2013-09-08 00:30:00,
2013-09-07 20:40:00,67.7,64.0,30.02,WSW,245,0.0,0.0,88,0.00,,,0.00,Wunderground v.1.15,2013-09-08 00:40:00,
2013-09-07 20:45:00,67.4,64.0,30.02,WSW,245,0.0,0.0,89,0.00,,,0.00,Wunderground v.1.15,2013-09-08 00:45:00,
2013-09-07 20:55:00,66.9,63.6,30.03,WSW,245,0.0,0.0,89,0.00,,,0.00,Wunderground v.1.15,2013-09-08 00:55:00,
2013-09-07 21:00:00,66.7,63.4,30.03,WSW,245,0.0,0.0,89,0.00,,,0.00,Wunderground v.1.15,2013-09-08 01:00:00,
2013-09-07 21:05:00,66.5,63.2,30.03,WSW,245,0.0,0.0,89,0.00,,,0.00,Wunderground v.1.15,2013-09-08 01:05:00,
2013-09-07 21:10:00,66.3,63.0,30.03,WSW,245,0.0,0.0,89,0.00,,,0.00,Wunderground v.1.15,2013-09-08 01:10:00,
2013-09-07 21:15:00,66.1,62.8,30.03,WSW,245,0.0,0.0,89,0.00,,,0.00,Wunderground v.1.15,2013-09-08 01:15:00,
2013-09-07 21:25:00,65.7,62.4,30.03,WSW,245,0.0,0.0,89,0.00,,,0.00,Wunderground v.1.15,2013-09-08 01:25:00,
2013-09-07 21:30:00,65.6,62.3,30.03,WSW,245,0.0,0.0,89,0.00,,,0.00,Wunderground v.1.15,2013-09-08 01:30:00,
2013-09-07 21:40:00,65.2,61.9,30.03,WSW,245,0.0,0.0,89,0.00,,,0.00,Wunderground v.1.15,2013-09-08 01:40:00,
2013-09-07 21:45:00,65.0,61.7,30.03,WSW,245,0.0,0.0,89,0.00,,,0.00,Wunderground v.1.15,2013-09-08 01:45:00,
2013-09-07 21:55:00,64.7,61.7,30.03,WSW,245,0.0,0.0,90,0.00,,,0.00,Wunderground v.1.15,2013-09-08 01:55:00,
2013-09-07 22:00:00,64.6,61.3,30.03,WSW,245,0.0,0.0,89,0.00,,,0.00,Wunderground v.1.15,2013-09-08 02:00:00,
2013-09-07 22:10:00,64.2,61.2,30.03,WSW,245,0.0,0.0,90,0.00,,,0.00,Wunderground v.1.15,2013-09-08 02:10:00,
2013-09-07 22:15:00,64.0,61.0,30.03,WSW,245,0.0,0.0,90,0.00,,,0.00,Wunderground v.1.15,2013-09-08 02:15:00,
2013-09-07 22:25:00,63.8,60.8,30.03,WSW,245,0.0,0.0,90,0.00,,,0.00,Wunderground v.1.15,2013-09-08 02:25:00,
2013-09-07 22:30:00,63.7,60.7,30.03,WSW,245,0.0,0.0,90,0.00,,,0.00,Wunderground v.1.15,2013-09-08 02:30:00,
2013-09-07 22:35:00,63.5,60.5,30.03,WSW,245,0.0,0.0,90,0.00,,,0.00,Wunderground v.1.15,2013-09-08 02:35:00,
2013-09-07 22:40:00,63.4,60.4,30.03,WSW,245,0.0,0.0,90,0.00,,,0.00,Wunderground v.1.15,2013-09-08 02:40:00,
2013-09-07 22:45:00,63.2,60.2,30.03,WSW,245,0.0,0.0,90,0.00,,,0.00,Wunderground v.1.15,2013-09-08 02:45:00,
2013-09-07 22:55:00,63.0,60.0,30.03,WSW,245,0.0,0.0,90,0.00,,,0.00,Wunderground v.1.15,2013-09-08 02:55:00,
2013-09-07 23:00:00,62.8,59.8,30.03,WSW,245,0.0,0.0,90,0.00,,,0.00,Wunderground v.1.15,2013-09-08 03:00:00,
2013-09-07 23:10:00,62.6,59.6,30.03,WSW,245,0.0,0.0,90,0.00,,,0.00,Wunderground v.1.15,2013-09-08 03:10:00,
2013-09-07 23:15:00,62.5,59.5,30.04,WSW,245,0.0,0.0,90,0.00,,,0.00,Wunderground v.1.15,2013-09-08 03:15:00,
2013-09-07 23:25:00,62.2,59.2,30.04,WSW,245,0.0,0.0,90,0.00,,,0.00,Wunderground v.1.15,2013-09-08 03:25:00,
2013-09-07 23:30:00,62.2,59.2,30.04,WSW,245,0.0,0.0,90,0.00,,,0.00,Wunderground v.1.15,2013-09-08 03:30:00,
2013-09-07 23:35:00,62.1,59.1,30.03,WSW,245,0.0,0.0,90,0.00,,,0.00,Wunderground v.1.15,2013-09-08 03:35:00,
2013-09-07 23:40:00,61.9,58.9,30.04,WSW,245,0.0,0.0,90,0.00,,,0.00,Wunderground v.1.15,2013-09-08 03:40:00,
2013-09-07 23:50:00,61.7,58.7,30.04,WSW,245,0.0,0.0,90,0.00,,,0.00,Wunderground v.1.15,2013-09-08 03:50:00,
2013-09-07 23:55:00,61.6,58.6,30.04,WSW,245,0.0,0.0,90,0.00,,,0.00,Wunderground v.1.15,2013-09-08 03:55:00,